createdAt,value
2023-05-01T00:01:31.305Z,5.57
2023-05-01T00:03:58.248Z,5.70
2023-05-01T00:06:25.418Z,5.00
2023-05-01T00:08:52.137Z,5.65
2023-05-01T00:11:18.748Z,5.68
2023-05-01T00:13:45.490Z,5.38
2023-05-01T00:16:13.068Z,5.50
2023-05-01T00:18:39.927Z,5.50
2023-05-01T00:21:06.588Z,6.03
2023-05-01T00:23:33.356Z,5.97
2023-05-01T00:26:00.025Z,5.57
2023-05-01T00:28:26.759Z,5.40
2023-05-01T00:30:53.431Z,6.03
2023-05-01T00:33:20.038Z,5.82
2023-05-01T00:35:46.993Z,5.65
2023-05-01T00:38:13.870Z,5.72
2023-05-01T00:40:45.244Z,5.10
2023-05-01T00:43:12.342Z,5.65
2023-05-01T00:45:40.701Z,5.85
2023-05-01T00:48:07.872Z,5.90
2023-05-01T00:50:34.554Z,4.90
2023-05-01T00:53:01.766Z,4.97
2023-05-01T00:55:28.903Z,6.22
2023-05-01T00:57:56.497Z,5.70
2023-05-01T01:00:24.875Z,5.00
2023-05-01T01:02:52.188Z,5.50
2023-05-01T01:05:21.856Z,5.72
2023-05-01T01:07:59.380Z,5.80
2023-05-01T01:10:44.927Z,5.88
2023-05-01T01:13:14.343Z,5.63
2023-05-01T01:15:59.629Z,5.70
2023-05-01T01:18:56.583Z,5.57
2023-05-01T01:21:36.814Z,6.13
2023-05-01T01:24:34.706Z,5.47
2023-05-01T01:27:20.635Z,5.68
2023-05-01T01:29:56.987Z,6.20
2023-05-01T01:32:53.789Z,5.70
2023-05-01T01:35:25.959Z,6.15
2023-05-01T01:38:17.950Z,6.40
2023-05-01T01:40:57.468Z,37.20
2023-05-01T01:43:26.385Z,11.05
2023-05-01T01:45:58.992Z,5.88
2023-05-01T01:48:31.949Z,5.80
2023-05-01T01:50:59.649Z,5.97
2023-05-01T01:53:28.601Z,5.97
2023-05-01T01:55:58.197Z,6.55
2023-05-01T01:58:27.040Z,6.07
2023-05-01T02:00:55.504Z,5.72
2023-05-01T02:03:24.437Z,5.70
2023-05-01T02:05:54.637Z,5.78
2023-05-01T02:08:21.584Z,6.32
2023-05-01T02:10:51.031Z,6.20
2023-05-01T02:13:18.384Z,6.18
2023-05-01T02:15:45.955Z,6.03
2023-05-01T02:18:14.774Z,6.30
2023-05-01T02:20:42.905Z,5.55
2023-05-01T02:23:10.291Z,5.90
2023-05-01T02:25:39.549Z,6.82
2023-05-01T02:28:13.283Z,6.22
2023-05-01T02:30:40.416Z,6.90
2023-05-01T02:33:08.966Z,5.65
2023-05-01T02:35:44.032Z,5.80
2023-05-01T02:38:13.107Z,6.32
2023-05-01T02:40:40.513Z,6.25
2023-05-01T02:43:11.541Z,6.57
2023-05-01T02:45:40.613Z,6.07
2023-05-01T02:48:10.027Z,6.55
2023-05-01T02:50:40.728Z,6.70
2023-05-01T02:53:08.268Z,6.38
2023-05-01T02:55:35.955Z,9.07
2023-05-01T02:58:02.621Z,6.40
2023-05-01T03:00:31.587Z,7.32
2023-05-01T03:02:58.435Z,6.70
2023-05-01T03:05:25.220Z,7.40
2023-05-01T03:07:51.864Z,6.05
2023-05-01T03:10:18.883Z,6.75
2023-05-01T03:12:45.507Z,5.70
2023-05-01T03:15:12.716Z,5.68
2023-05-01T03:17:39.848Z,6.65
2023-05-01T03:20:07.341Z,6.03
2023-05-01T03:22:33.985Z,6.10
2023-05-01T03:25:00.961Z,5.88
2023-05-01T03:27:27.833Z,6.10
2023-05-01T03:29:54.657Z,7.10
2023-05-01T03:32:21.679Z,8.45
2023-05-01T03:34:48.510Z,5.68
2023-05-01T03:37:18.429Z,5.72
2023-05-01T03:39:45.145Z,6.10
2023-05-01T03:42:11.751Z,5.82
2023-05-01T03:44:38.332Z,6.95
2023-05-01T03:47:05.009Z,5.57
2023-05-01T03:49:31.653Z,6.22
2023-05-01T03:51:58.410Z,5.90
2023-05-01T03:54:25.902Z,5.97
2023-05-01T03:56:52.609Z,5.80
2023-05-01T03:59:19.368Z,6.22
2023-05-01T04:01:46.143Z,5.93
2023-05-01T04:04:14.049Z,7.15
2023-05-01T04:06:41.166Z,5.75
2023-05-01T04:09:08.325Z,5.65
2023-05-01T04:11:34.991Z,4.43
2023-05-01T04:14:01.604Z,6.25
2023-05-01T04:16:28.429Z,6.25
2023-05-01T04:18:55.112Z,5.43
2023-05-01T04:21:21.892Z,6.00
2023-05-01T04:23:48.507Z,5.68
2023-05-01T04:26:15.383Z,5.72
2023-05-01T04:28:42.165Z,5.70
2023-05-01T04:31:08.807Z,6.05
2023-05-01T04:33:35.454Z,5.85
2023-05-01T04:36:02.544Z,5.70
2023-05-01T04:38:30.384Z,5.78
2023-05-01T04:40:59.449Z,5.40
2023-05-01T04:43:26.007Z,5.20
2023-05-01T04:45:52.644Z,6.78
2023-05-01T04:48:19.348Z,6.10
2023-05-01T04:50:46.031Z,5.90
2023-05-01T04:53:12.610Z,5.78
2023-05-01T04:55:39.288Z,6.65
2023-05-01T04:58:06.063Z,5.65
2023-05-01T05:00:32.698Z,6.20
2023-05-01T05:02:59.415Z,6.15
2023-05-01T05:05:26.404Z,6.40
2023-05-01T05:07:53.076Z,6.15
2023-05-01T05:10:22.030Z,6.43
2023-05-01T05:12:48.617Z,6.50
2023-05-01T05:15:16.546Z,6.20
2023-05-01T05:17:43.249Z,5.95
2023-05-01T05:20:10.290Z,8.27
2023-05-01T05:22:37.677Z,5.57
2023-05-01T05:25:06.786Z,5.78
2023-05-01T05:27:38.373Z,7.10
2023-05-01T05:30:06.074Z,5.95
2023-05-01T05:32:33.817Z,5.32
2023-05-01T05:35:00.633Z,5.18
2023-05-01T05:37:27.364Z,8.25
2023-05-01T05:39:54.411Z,5.03
2023-05-01T05:42:21.152Z,6.15
2023-05-01T05:44:47.794Z,5.50
2023-05-01T05:47:14.441Z,6.90
2023-05-01T05:49:41.267Z,5.53
2023-05-01T05:52:07.938Z,5.20
2023-05-01T05:54:34.676Z,6.32
2023-05-01T05:57:02.725Z,6.40
2023-05-01T05:59:29.350Z,4.55
2023-05-01T06:24:01.405Z,6.15
2023-05-01T06:26:28.378Z,7.38
2023-05-01T06:28:55.278Z,6.90
2023-05-01T08:34:07.088Z,4.05
2023-05-01T09:11:08.371Z,3.30
2023-05-01T09:16:01.723Z,3.40
2023-05-01T09:18:28.464Z,3.30
2023-05-01T09:20:55.488Z,3.50
2023-05-01T09:23:22.128Z,3.60
2023-05-01T09:25:51.396Z,3.08
2023-05-01T09:28:18.691Z,3.15
2023-05-01T09:30:45.446Z,3.25
2023-05-01T09:33:13.567Z,3.70
2023-05-01T09:35:54.721Z,3.10
2023-05-01T09:38:25.806Z,2.97
2023-05-01T09:40:54.195Z,2.67
2023-05-01T09:43:27.922Z,3.22
2023-05-01T09:46:13.122Z,3.72
2023-05-01T09:48:40.185Z,3.42
2023-05-01T09:51:27.208Z,3.20
2023-05-01T09:53:56.651Z,3.15
2023-05-01T09:56:23.969Z,3.35
2023-05-01T09:58:52.340Z,3.85
2023-05-01T10:01:22.205Z,3.92
2023-05-01T10:03:55.202Z,3.45
2023-05-01T10:06:28.841Z,3.27
2023-05-01T10:08:55.784Z,4.80
2023-05-01T10:11:23.703Z,6.60
2023-05-01T10:14:10.527Z,4.28
2023-05-01T10:16:38.889Z,3.15
2023-05-01T10:19:06.145Z,2.92
2023-05-01T10:21:33.640Z,2.78
2023-05-01T10:24:03.677Z,3.03
2023-05-01T10:26:30.361Z,2.63
2023-05-01T10:28:59.675Z,3.00
2023-05-01T10:31:27.882Z,3.83
2023-05-01T10:33:56.454Z,3.33
2023-05-01T10:36:26.853Z,4.07
2023-05-01T10:38:53.651Z,3.25
2023-05-01T10:42:00.566Z,5.13
2023-05-01T10:44:27.740Z,4.90
2023-05-01T10:46:55.526Z,4.55
2023-05-01T10:49:22.565Z,3.53
2023-05-01T10:51:58.530Z,3.75
2023-05-01T10:54:29.051Z,3.70
2023-05-01T10:57:01.414Z,3.90
2023-05-01T11:00:17.446Z,3.05
2023-05-01T11:02:44.091Z,3.30
2023-05-01T11:05:11.055Z,3.92
2023-05-01T11:07:37.751Z,3.35
2023-05-01T11:10:27.480Z,4.30
2023-05-01T11:12:54.342Z,5.72
2023-05-01T11:15:34.071Z,4.00
2023-05-01T11:18:06.138Z,13.65
2023-05-01T11:20:35.545Z,5.38
2023-05-01T11:23:02.169Z,4.55
2023-05-01T11:25:31.065Z,3.75
2023-05-01T11:28:02.594Z,8.25
2023-05-01T11:30:39.452Z,2.58
2023-05-01T11:33:10.207Z,4.00
2023-05-01T11:35:38.690Z,3.88
2023-05-01T11:38:16.405Z,3.50
2023-05-01T11:40:43.129Z,3.47
2023-05-01T11:43:09.947Z,3.72
2023-05-01T11:45:37.874Z,3.47
2023-05-01T11:48:14.083Z,4.00
2023-05-01T11:50:40.831Z,2.95
2023-05-01T11:53:14.474Z,3.40
2023-05-01T11:55:45.099Z,3.83
2023-05-01T11:58:12.766Z,3.88
2023-05-01T12:00:42.088Z,2.88
2023-05-01T12:03:10.965Z,3.05
2023-05-01T12:05:42.908Z,2.90
2023-05-01T12:08:12.243Z,2.92
2023-05-01T12:10:41.190Z,3.03
2023-05-01T12:13:09.128Z,3.10
2023-05-01T12:15:38.209Z,3.70
2023-05-01T12:18:05.958Z,3.47
2023-05-01T12:20:36.242Z,3.13
2023-05-01T12:23:05.284Z,3.33
2023-05-01T12:25:34.285Z,6.07
2023-05-01T12:28:09.943Z,3.70
2023-05-01T12:30:37.720Z,2.60
2023-05-01T12:33:15.850Z,7.65
2023-05-01T12:35:47.126Z,5.85
2023-05-01T12:38:22.076Z,4.22
2023-05-01T12:40:56.824Z,3.58
2023-05-01T12:43:33.979Z,3.60
2023-05-01T12:46:01.256Z,3.70
2023-05-01T12:48:28.162Z,3.13
2023-05-01T12:50:55.284Z,4.00
2023-05-01T12:53:26.182Z,3.55
2023-05-01T12:55:56.671Z,3.28
2023-05-01T12:58:26.528Z,2.88
2023-05-01T13:00:55.500Z,2.42
2023-05-01T13:03:27.623Z,3.13
2023-05-01T13:06:06.004Z,2.90
2023-05-01T13:08:36.970Z,3.38
2023-05-01T13:11:14.716Z,3.30
2023-05-01T13:13:43.251Z,7.90
2023-05-01T13:16:12.727Z,3.15
2023-05-01T13:18:50.295Z,5.30
2023-05-01T13:21:22.119Z,4.90
2023-05-01T13:23:59.823Z,3.00
2023-05-01T13:26:31.728Z,3.40
2023-05-01T13:29:00.228Z,2.78
2023-05-01T13:31:27.621Z,2.95
2023-05-01T13:33:55.971Z,2.40
2023-05-01T13:36:26.677Z,3.13
2023-05-01T13:38:56.885Z,2.90
2023-05-01T13:41:28.992Z,2.33
2023-05-01T13:43:56.753Z,3.30
2023-05-01T13:46:24.950Z,3.67
2023-05-01T13:48:54.874Z,2.70
2023-05-01T13:51:24.198Z,2.70
2023-05-01T13:53:53.671Z,2.28
2023-05-01T13:56:21.848Z,2.50
2023-05-01T13:58:50.237Z,2.80
2023-05-01T14:01:22.452Z,2.58
2023-05-01T14:03:50.290Z,2.70
2023-05-01T14:06:19.265Z,3.00
2023-05-01T14:08:48.070Z,2.65
2023-05-01T14:11:15.917Z,2.97
2023-05-01T14:13:45.007Z,3.00
2023-05-01T14:16:22.193Z,2.60
2023-05-01T14:18:48.892Z,2.60
2023-05-01T14:21:17.515Z,5.55
2023-05-01T14:23:44.442Z,5.60
2023-05-01T14:26:17.026Z,2.67
2023-05-01T14:28:45.312Z,3.67
2023-05-01T14:31:27.358Z,3.05
2023-05-01T14:33:59.231Z,3.00
2023-05-01T14:36:28.630Z,3.15
2023-05-01T14:39:04.364Z,3.30
2023-05-01T14:41:32.184Z,2.70
2023-05-01T14:44:05.069Z,2.83
2023-05-01T14:46:35.364Z,2.80
2023-05-01T14:49:05.284Z,2.70
2023-05-01T14:51:32.347Z,2.60
2023-05-01T14:53:59.622Z,3.15
2023-05-01T14:56:26.272Z,2.75
2023-05-01T14:58:52.880Z,3.08
2023-05-01T15:01:26.904Z,13.80
2023-05-01T15:03:56.512Z,14.20
2023-05-01T15:06:24.875Z,2.85
2023-05-01T15:08:54.495Z,6.30
2023-05-01T15:11:21.745Z,15.30
2023-05-01T15:13:50.532Z,4.10
2023-05-01T15:16:17.501Z,4.13
2023-05-01T15:18:49.062Z,3.90
2023-05-01T15:21:18.743Z,3.40
2023-05-01T15:23:46.266Z,2.88
2023-05-01T15:26:13.375Z,3.13
2023-05-01T15:28:40.022Z,4.03
2023-05-01T15:31:07.138Z,4.00
2023-05-01T15:33:36.767Z,3.20
2023-05-01T15:36:06.311Z,4.35
2023-05-01T15:38:35.857Z,3.50
2023-05-01T15:41:02.497Z,3.80
2023-05-01T15:43:29.145Z,3.30
2023-05-01T15:46:02.510Z,3.53
2023-05-01T15:48:32.752Z,2.55
2023-05-01T15:51:05.141Z,2.70
2023-05-01T15:53:31.682Z,3.20
2023-05-01T15:55:58.672Z,3.20
2023-05-01T15:58:32.770Z,4.05
2023-05-01T16:01:01.667Z,4.68
2023-05-01T16:03:28.653Z,6.60
2023-05-01T16:06:00.673Z,4.53
2023-05-01T16:08:27.545Z,3.63
2023-05-01T16:10:56.708Z,3.58
2023-05-01T16:13:23.955Z,5.60
2023-05-01T16:15:52.693Z,4.07
2023-05-01T16:18:25.439Z,3.63
2023-05-01T16:20:59.594Z,4.15
2023-05-01T16:23:29.813Z,4.18
2023-05-01T16:25:56.736Z,4.43
2023-05-01T16:28:25.158Z,5.25
2023-05-01T16:30:56.094Z,4.80
2023-05-01T16:33:26.568Z,6.22
2023-05-01T16:35:55.582Z,5.10
2023-05-01T16:38:27.547Z,4.60
2023-05-01T16:40:57.308Z,5.10
2023-05-01T16:43:24.235Z,5.93
2023-05-01T16:45:54.161Z,3.70
2023-05-01T16:48:24.245Z,3.97
2023-05-01T16:50:51.515Z,4.20
2023-05-01T16:53:21.545Z,3.13
2023-05-01T16:55:48.137Z,6.28
2023-05-01T16:58:19.471Z,4.38
2023-05-01T17:00:46.297Z,5.35
2023-05-01T17:03:14.420Z,4.85
2023-05-01T17:05:41.142Z,4.25
2023-05-01T17:08:07.894Z,3.92
2023-05-01T17:10:34.538Z,7.70
2023-05-01T17:13:01.482Z,8.43
2023-05-01T17:15:30.322Z,8.80
2023-05-01T17:17:57.030Z,6.88
2023-05-01T17:20:23.658Z,6.25
2023-05-01T17:22:50.229Z,8.25
2023-05-01T17:25:17.012Z,5.60
2023-05-01T17:27:43.640Z,7.03
2023-05-01T17:30:10.582Z,6.63
2023-05-01T17:32:37.853Z,5.95
2023-05-01T17:35:05.813Z,6.97
2023-05-01T17:37:39.704Z,4.60
2023-05-01T17:42:34.033Z,5.15
2023-05-01T17:45:07.765Z,6.43
2023-05-01T17:47:34.938Z,7.05
2023-05-01T17:50:05.720Z,5.47
2023-05-01T17:52:32.370Z,4.80
2023-05-01T17:54:59.000Z,7.90
2023-05-01T17:57:25.868Z,5.03
2023-05-01T17:59:52.663Z,4.43
2023-05-01T18:02:19.424Z,4.10
2023-05-01T18:04:49.604Z,6.43
2023-05-01T18:07:16.366Z,7.22
2023-05-01T18:09:43.069Z,6.88
2023-05-01T18:12:10.348Z,6.03
2023-05-01T18:14:37.525Z,5.75
2023-05-01T18:17:06.976Z,5.20
2023-05-01T18:19:33.715Z,6.40
2023-05-01T18:22:00.379Z,10.55
2023-05-01T18:24:27.335Z,11.57
2023-05-01T18:26:53.977Z,17.95
2023-05-01T18:29:22.800Z,15.13
2023-05-01T18:31:55.735Z,12.57
2023-05-01T18:34:22.448Z,10.85
2023-05-01T18:36:52.278Z,11.63
2023-05-01T18:39:22.465Z,10.90
2023-05-01T18:41:54.492Z,11.60
2023-05-01T18:44:21.189Z,11.18
2023-05-01T18:46:47.955Z,11.38
2023-05-01T18:49:14.621Z,8.30
2023-05-01T18:51:43.681Z,8.85
2023-05-01T18:54:10.531Z,9.32
2023-05-01T18:56:37.228Z,10.25
2023-05-01T18:59:03.905Z,8.95
2023-05-01T19:01:30.645Z,10.02
2023-05-01T19:03:59.449Z,9.70
2023-05-01T19:06:29.349Z,10.15
2023-05-01T19:08:56.140Z,11.07
2023-05-01T19:11:25.168Z,10.65
2023-05-01T19:13:52.760Z,8.45
2023-05-01T19:16:19.463Z,12.65
2023-05-01T19:18:48.392Z,9.73
2023-05-01T19:21:15.486Z,9.52
2023-05-01T19:23:43.264Z,9.05
2023-05-01T19:26:09.989Z,9.35
2023-05-01T19:28:38.591Z,8.25
2023-05-01T19:31:05.647Z,8.15
2023-05-01T19:33:32.267Z,9.43
2023-05-01T19:35:58.938Z,9.85
2023-05-01T19:38:29.707Z,9.35
2023-05-01T19:40:59.345Z,10.80
2023-05-01T19:43:25.976Z,9.60
2023-05-01T19:45:53.584Z,10.73
2023-05-01T19:48:20.340Z,9.90
2023-05-01T19:50:51.867Z,12.60
2023-05-01T19:53:18.553Z,11.68
2023-05-01T19:55:47.767Z,10.70
2023-05-01T19:58:15.150Z,11.48
2023-05-01T20:00:42.221Z,11.60
2023-05-01T20:03:10.833Z,11.80
2023-05-01T20:05:37.739Z,11.88
2023-05-01T20:08:05.177Z,10.82
2023-05-01T20:10:31.988Z,10.80
2023-05-01T20:12:58.962Z,10.38
2023-05-01T20:15:26.013Z,9.70
2023-05-01T20:17:55.329Z,10.20
2023-05-01T20:20:22.056Z,11.15
2023-05-01T20:22:52.244Z,12.85
2023-05-01T20:25:18.894Z,10.52
2023-05-01T20:27:45.537Z,13.43
2023-05-01T20:30:12.483Z,11.95
2023-05-01T20:32:42.629Z,11.00
2023-05-01T20:35:11.347Z,10.82
2023-05-01T20:37:38.336Z,11.43
2023-05-01T20:40:07.181Z,10.27
2023-05-01T20:42:33.840Z,11.00
2023-05-01T20:45:00.437Z,10.15
2023-05-01T20:47:27.193Z,9.75
2023-05-01T20:49:54.127Z,10.55
2023-05-01T20:52:20.743Z,9.73
2023-05-01T20:57:16.828Z,9.57
2023-05-01T20:59:50.182Z,10.88
2023-05-01T22:11:12.204Z,10.90
2023-05-01T22:13:38.809Z,10.10
2023-05-01T22:16:05.875Z,9.93
2023-05-01T22:18:33.219Z,10.85
2023-05-01T22:21:01.447Z,10.38
2023-05-01T22:23:28.092Z,9.75
2023-05-01T22:25:59.918Z,10.57
2023-05-01T22:28:26.978Z,9.55
2023-05-01T22:30:53.562Z,9.18
2023-05-01T22:33:20.631Z,9.73
2023-05-01T22:35:47.238Z,9.80
2023-05-01T23:07:35.879Z,11.00
2023-05-01T23:10:04.838Z,9.80
2023-05-01T23:12:31.942Z,9.70
2023-05-01T23:14:58.656Z,9.65
2023-05-01T23:17:30.200Z,9.43
2023-05-01T23:19:58.567Z,9.80
2023-05-01T23:22:25.905Z,9.32
2023-05-01T23:24:52.616Z,10.82
2023-05-01T23:27:19.919Z,8.45
2023-05-01T23:52:01.571Z,9.10
2023-05-01T23:54:28.214Z,10.63
